sensor_id;sensor_type;location;lat;lon;timestamp;P1;durP1;ratioP1;P2;durP2;ratioP2
71637;SDS011;59485;43.542;-5.676;2023-01-20T05:44:26;79.15;;;74.97;;
71637;SDS011;59485;43.542;-5.676;2023-01-20T05:50:07;78.60;;;74.25;;
71637;SDS011;59485;43.542;-5.676;2023-01-20T05:52:48;77.57;;;73.00;;
71637;SDS011;59485;43.542;-5.676;2023-01-20T05:55:13;88.87;;;80.37;;
71637;SDS011;59485;43.542;-5.676;2023-01-20T05:57:54;102.78;;;86.60;;
71637;SDS011;59485;43.542;-5.676;2023-01-20T06:00:19;75.85;;;69.82;;
71637;SDS011;59485;43.542;-5.676;2023-01-20T06:02:45;83.80;;;76.47;;
71637;SDS011;59485;43.542;-5.676;2023-01-20T06:05:13;69.35;;;65.35;;
71637;SDS011;59485;43.542;-5.676;2023-01-20T06:07:41;74.00;;;69.68;;
71637;SDS011;59485;43.542;-5.676;2023-01-20T06:16:08;77.47;;;73.38;;
71637;SDS011;59485;43.542;-5.676;2023-01-20T06:18:34;76.93;;;72.73;;
71637;SDS011;59485;43.542;-5.676;2023-01-20T06:21:00;69.78;;;66.03;;
71637;SDS011;59485;43.542;-5.676;2023-01-20T06:26:12;73.53;;;69.68;;
71637;SDS011;59485;43.542;-5.676;2023-01-20T06:28:56;71.00;;;67.18;;
71637;SDS011;59485;43.542;-5.676;2023-01-20T06:31:22;69.43;;;65.72;;
71637;SDS011;59485;43.542;-5.676;2023-01-20T06:33:47;71.97;;;68.13;;
71637;SDS011;59485;43.542;-5.676;2023-01-20T06:36:12;72.40;;;68.50;;
71637;SDS011;59485;43.542;-5.676;2023-01-20T06:38:40;121.68;;;88.32;;
71637;SDS011;59485;43.542;-5.676;2023-01-20T06:41:06;74.80;;;70.00;;
71637;SDS011;59485;43.542;-5.676;2023-01-20T06:43:33;84.45;;;80.00;;
71637;SDS011;59485;43.542;-5.676;2023-01-20T06:46:02;70.30;;;66.00;;
71637;SDS011;59485;43.542;-5.676;2023-01-20T06:48:28;133.27;;;92.35;;
71637;SDS011;59485;43.542;-5.676;2023-01-20T06:50:58;130.53;;;89.47;;
71637;SDS011;59485;43.542;-5.676;2023-01-20T06:53:24;130.15;;;83.65;;
71637;SDS011;59485;43.542;-5.676;2023-01-20T06:55:53;119.90;;;84.07;;
71637;SDS011;59485;43.542;-5.676;2023-01-20T06:58:20;79.88;;;75.72;;
71637;SDS011;59485;43.542;-5.676;2023-01-20T07:00:45;134.23;;;88.03;;
71637;SDS011;59485;43.542;-5.676;2023-01-20T07:03:10;93.53;;;83.27;;
71637;SDS011;59485;43.542;-5.676;2023-01-20T07:05:36;80.30;;;74.43;;
71637;SDS011;59485;43.542;-5.676;2023-01-20T07:08:01;92.68;;;82.78;;
71637;SDS011;59485;43.542;-5.676;2023-01-20T07:10:26;102.97;;;81.27;;
71637;SDS011;59485;43.542;-5.676;2023-01-20T07:12:55;71.53;;;67.37;;
71637;SDS011;59485;43.542;-5.676;2023-01-20T07:15:20;78.13;;;74.03;;
71637;SDS011;59485;43.542;-5.676;2023-01-20T07:17:45;68.43;;;64.72;;
71637;SDS011;59485;43.542;-5.676;2023-01-20T07:20:11;73.53;;;69.47;;
71637;SDS011;59485;43.542;-5.676;2023-01-20T07:22:36;72.57;;;67.40;;
71637;SDS011;59485;43.542;-5.676;2023-01-20T07:25:01;68.47;;;64.80;;
71637;SDS011;59485;43.542;-5.676;2023-01-20T07:27:27;68.17;;;64.53;;
71637;SDS011;59485;43.542;-5.676;2023-01-20T07:29:52;87.07;;;77.27;;
71637;SDS011;59485;43.542;-5.676;2023-01-20T07:32:18;66.47;;;62.87;;
71637;SDS011;59485;43.542;-5.676;2023-01-20T07:34:44;121.18;;;91.88;;
71637;SDS011;59485;43.542;-5.676;2023-01-20T07:37:09;71.37;;;67.53;;
71637;SDS011;59485;43.542;-5.676;2023-01-20T07:39:35;66.07;;;62.47;;
71637;SDS011;59485;43.542;-5.676;2023-01-20T07:42:00;69.90;;;66.13;;
71637;SDS011;59485;43.542;-5.676;2023-01-20T07:44:25;70.70;;;66.90;;
71637;SDS011;59485;43.542;-5.676;2023-01-20T07:46:51;75.40;;;71.40;;
71637;SDS011;59485;43.542;-5.676;2023-01-20T07:49:16;68.93;;;65.17;;
71637;SDS011;59485;43.542;-5.676;2023-01-20T07:51:41;76.37;;;72.37;;
71637;SDS011;59485;43.542;-5.676;2023-01-20T07:54:09;71.00;;;67.20;;
71637;SDS011;59485;43.542;-5.676;2023-01-20T07:56:34;71.30;;;67.50;;
71637;SDS011;59485;43.542;-5.676;2023-01-20T07:58:59;67.73;;;64.10;;
71637;SDS011;59485;43.542;-5.676;2023-01-20T08:01:29;67.20;;;63.60;;
71637;SDS011;59485;43.542;-5.676;2023-01-20T08:03:55;72.88;;;68.40;;
71637;SDS011;59485;43.542;-5.676;2023-01-20T08:06:21;91.97;;;80.88;;
71637;SDS011;59485;43.542;-5.676;2023-01-20T08:08:47;129.75;;;84.78;;
71637;SDS011;59485;43.542;-5.676;2023-01-20T08:11:13;136.02;;;85.82;;
71637;SDS011;59485;43.542;-5.676;2023-01-20T08:13:40;134.73;;;85.05;;
71637;SDS011;59485;43.542;-5.676;2023-01-20T08:16:06;71.93;;;67.43;;
71637;SDS011;59485;43.542;-5.676;2023-01-20T08:18:32;70.47;;;66.57;;
71637;SDS011;59485;43.542;-5.676;2023-01-20T08:20:58;72.13;;;68.18;;
71637;SDS011;59485;43.542;-5.676;2023-01-20T08:23:23;72.07;;;68.17;;
71637;SDS011;59485;43.542;-5.676;2023-01-20T08:25:49;69.82;;;65.95;;
71637;SDS011;59485;43.542;-5.676;2023-01-20T08:28:22;73.10;;;68.45;;
71637;SDS011;59485;43.542;-5.676;2023-01-20T08:30:47;75.20;;;70.70;;
71637;SDS011;59485;43.542;-5.676;2023-01-20T08:33:13;131.67;;;88.37;;
71637;SDS011;59485;43.542;-5.676;2023-01-20T08:35:38;93.77;;;83.63;;
71637;SDS011;59485;43.542;-5.676;2023-01-20T08:38:03;85.65;;;77.25;;
71637;SDS011;59485;43.542;-5.676;2023-01-20T08:40:30;135.23;;;91.03;;
71637;SDS011;59485;43.542;-5.676;2023-01-20T08:42:56;110.72;;;90.95;;
71637;SDS011;59485;43.542;-5.676;2023-01-20T08:45:21;134.60;;;93.47;;
71637;SDS011;59485;43.542;-5.676;2023-01-20T08:47:47;89.32;;;84.72;;
71637;SDS011;59485;43.542;-5.676;2023-01-20T09:19:16;401.17;;;385.77;;
71637;SDS011;59485;43.542;-5.676;2023-01-20T09:33:58;89.07;;;84.50;;
71637;SDS011;59485;43.542;-5.676;2023-01-20T09:36:24;80.43;;;76.22;;
71637;SDS011;59485;43.542;-5.676;2023-01-20T09:38:51;74.07;;;70.17;;
71637;SDS011;59485;43.542;-5.676;2023-01-20T09:41:35;79.22;;;75.05;;
71637;SDS011;59485;43.542;-5.676;2023-01-20T09:52:40;73.35;;;69.45;;
71637;SDS011;59485;43.542;-5.676;2023-01-20T09:55:26;201.00;;;192.15;;
71637;SDS011;59485;43.542;-5.676;2023-01-20T09:57:57;219.02;;;209.77;;
71637;SDS011;59485;43.542;-5.676;2023-01-20T10:00:23;78.57;;;74.45;;
71637;SDS011;59485;43.542;-5.676;2023-01-20T10:02:51;261.92;;;250.85;;
71637;SDS011;59485;43.542;-5.676;2023-01-20T10:05:19;275.70;;;264.10;;
71637;SDS011;59485;43.542;-5.676;2023-01-20T10:07:55;106.97;;;101.60;;
71637;SDS011;59485;43.542;-5.676;2023-01-20T10:10:24;78.93;;;74.82;;
71637;SDS011;59485;43.542;-5.676;2023-01-20T10:13:54;88.53;;;83.95;;
71637;SDS011;59485;43.542;-5.676;2023-01-20T10:15:47;92.85;;;88.10;;
71637;SDS011;59485;43.542;-5.676;2023-01-20T10:20:49;78.57;;;74.40;;
71637;SDS011;59485;43.542;-5.676;2023-01-20T10:26:06;103.22;;;97.93;;
71637;SDS011;59485;43.542;-5.676;2023-01-20T10:28:35;96.07;;;91.07;;
71637;SDS011;59485;43.542;-5.676;2023-01-20T10:31:03;100.78;;;95.57;;
71637;SDS011;59485;43.542;-5.676;2023-01-20T10:33:30;259.75;;;249.07;;
71637;SDS011;59485;43.542;-5.676;2023-01-20T10:35:57;100.50;;;95.32;;
71637;SDS011;59485;43.542;-5.676;2023-01-20T10:38:45;171.93;;;163.80;;
71637;SDS011;59485;43.542;-5.676;2023-01-20T10:41:18;342.17;;;328.38;;
71637;SDS011;59485;43.542;-5.676;2023-01-20T10:43:46;338.92;;;325.30;;
71637;SDS011;59485;43.542;-5.676;2023-01-20T10:49:11;331.13;;;317.70;;
71637;SDS011;59485;43.542;-5.676;2023-01-20T10:56:54;343.07;;;329.30;;
71637;SDS011;59485;43.542;-5.676;2023-01-20T11:01:49;402.57;;;387.37;;
71637;SDS011;59485;43.542;-5.676;2023-01-20T11:04:19;446.90;;;430.23;;
